LFMY 211130Z AUTO 34016KT 9999 ////// 07/M03 Q1024

ElémentsDécodage
LFMY Station météo située sur l'aérodrome de SALON-DE-PROVENCE
211130Z émis le 21 du mois à 11h30 UTC
AUTO Bulletin édité par un automate
34016KT vent du 340°, 16 noeuds
9999 visibilité horizontale supérieure à 10 Km
////// nébulosité (type et hauteur) non disponible
 type de nuage non observable
07/M03 température 07°C, point de rosée -03°C
 soit une humidité relative de 49%
Q1024 la pression au niveau de la mer (QNH) est de 1024 hPa